Time;durP1;ratioP1;P1;durP2;ratioP2;P2;SDS_P1;SDS_P2;PMS_P1;PMS_P2;Temp;Humidity;BMP_temperature;BMP_pressure;BME280_temperature;BME280_humidity;BME280_pressure;Samples;Min_cycle;Max_cycle;Signal;HPM_P1;HPM_P2
2021/01/03 00:04:52;;;;;;;14.48;8.00;;;;;;;;;;4713400;28;20129;-62
2021/01/03 00:07:18;;;;;;;12.65;9.20;;;;;;;;;;4205584;34;20236;-64
2021/01/03 00:09:43;;;;;;;13.43;8.00;;;;;;;;;;4208269;34;20533;-65
2021/01/03 00:12:09;;;;;;;11.73;8.93;;;;;;;;;;4195358;34;20114;-64
2021/01/03 00:14:35;;;;;;;16.10;8.43;;;;;;;;;;4194248;34;20120;-62
2021/01/03 00:17:02;;;;;;;17.17;9.13;;;;;;;;;;4194309;34;20128;-62
2021/01/03 00:19:28;;;;;;;13.68;8.93;;;;;;;;;;4203852;34;20465;-62
2021/01/03 00:21:54;;;;;;;14.73;9.05;;;;;;;;;;4196709;34;20130;-63
2021/01/03 00:24:21;;;;;;;13.30;9.23;;;;;;;;;;4194434;34;20114;-62
2021/01/03 00:26:47;;;;;;;12.70;8.40;;;;;;;;;;4195355;34;20176;-62
2021/01/03 00:29:13;;;;;;;14.18;8.88;;;;;;;;;;4194409;34;20137;-63
2021/01/03 00:31:43;;;;;;;12.57;8.98;;;;;;;;;;4188916;34;20130;-64
2021/01/03 00:34:09;;;;;;;13.90;8.95;;;;;;;;;;4194630;34;20103;-64
2021/01/03 00:36:35;;;;;;;13.52;10.27;;;;;;;;;;4194290;34;20269;-64
2021/01/03 00:39:01;;;;;;;13.52;9.25;;;;;;;;;;4192400;34;20137;-63
2021/01/03 00:41:27;;;;;;;15.18;10.00;;;;;;;;;;4185570;34;20118;-63
2021/01/03 00:43:56;;;;;;;16.30;10.43;;;;;;;;;;4192100;34;20125;-64
2021/01/03 00:46:22;;;;;;;15.43;9.00;;;;;;;;;;4184722;34;20125;-64
2021/01/03 00:48:48;;;;;;;15.05;10.05;;;;;;;;;;4197108;34;20157;-62
2021/01/03 00:51:14;;;;;;;13.85;9.35;;;;;;;;;;4195633;34;20125;-64
2021/01/03 00:53:40;;;;;;;13.50;9.30;;;;;;;;;;4192198;34;20185;-64
2021/01/03 00:56:06;;;;;;;14.60;9.60;;;;;;;;;;4188883;34;20114;-64
2021/01/03 00:58:31;;;;;;;15.00;9.65;;;;;;;;;;4192046;34;20177;-64
2021/01/03 01:00:57;;;;;;;15.05;10.38;;;;;;;;;;4191190;34;20133;-62
2021/01/03 01:03:23;;;;;;;15.65;10.23;;;;;;;;;;4185205;34;20209;-62
2021/01/03 01:05:49;;;;;;;14.85;10.48;;;;;;;;;;4190126;34;20251;-63
2021/01/03 01:08:15;;;;;;;15.68;10.00;;;;;;;;;;4192138;34;20128;-63
2021/01/03 01:10:41;;;;;;;14.40;10.43;;;;;;;;;;4191453;34;20210;-64
2021/01/03 01:13:07;;;;;;;21.52;10.32;;;;;;;;;;4189078;34;20165;-64
2021/01/03 01:15:33;;;;;;;14.05;10.35;;;;;;;;;;4191566;34;20102;-64
2021/01/03 01:18:02;;;;;;;14.87;10.05;;;;;;;;;;4191667;34;20568;-64
2021/01/03 01:20:29;;;;;;;15.80;9.98;;;;;;;;;;4191172;34;20602;-62
2021/01/03 01:22:55;;;;;;;15.65;9.85;;;;;;;;;;4191909;34;20262;-63
2021/01/03 01:25:24;;;;;;;17.80;10.73;;;;;;;;;;4191403;34;20136;-63
2021/01/03 01:27:51;;;;;;;14.55;10.07;;;;;;;;;;4191650;34;20102;-63
2021/01/03 01:30:17;;;;;;;14.43;10.20;;;;;;;;;;4189648;34;20189;-62
2021/01/03 01:32:43;;;;;;;15.73;10.27;;;;;;;;;;4191592;34;20612;-63
2021/01/03 01:35:11;;;;;;;13.77;9.80;;;;;;;;;;4191461;34;20118;-64
2021/01/03 01:37:37;;;;;;;16.40;10.55;;;;;;;;;;4191638;34;20095;-62
2021/01/03 01:40:08;;;;;;;13.82;9.98;;;;;;;;;;4191249;34;20103;-62
2021/01/03 01:42:37;;;;;;;15.63;10.45;;;;;;;;;;4191547;34;20106;-63
2021/01/03 01:45:07;;;;;;;13.88;9.82;;;;;;;;;;4190900;34;20094;-63
2021/01/03 01:47:35;;;;;;;15.27;11.50;;;;;;;;;;4186155;34;20454;-64
2021/01/03 01:50:03;;;;;;;14.75;12.25;;;;;;;;;;4190817;34;20097;-64
2021/01/03 01:52:32;;;;;;;14.07;11.73;;;;;;;;;;4188596;34;20109;-62
2021/01/03 01:54:59;;;;;;;14.45;11.43;;;;;;;;;;4203513;34;20094;-63
2021/01/03 01:57:30;;;;;;;12.60;11.12;;;;;;;;;;4198580;34;20482;-63
2021/01/03 02:00:18;;;;;;;14.05;11.05;;;;;;;;;;4192272;34;20502;-63
2021/01/03 02:03:06;;;;;;;14.45;11.25;;;;;;;;;;4205343;34;20509;-64
2021/01/03 02:05:44;;;;;;;12.20;10.45;;;;;;;;;;4184829;34;20548;-63
2021/01/03 02:08:13;;;;;;;13.23;11.82;;;;;;;;;;4189779;34;20128;-63
2021/01/03 02:10:41;;;;;;;13.35;10.65;;;;;;;;;;4195126;34;20565;-63
2021/01/03 02:13:15;;;;;;;10.88;9.63;;;;;;;;;;4204879;34;20106;-63
2021/01/03 02:15:41;;;;;;;11.40;9.70;;;;;;;;;;4204573;34;20113;-63
2021/01/03 02:18:08;;;;;;;11.18;9.65;;;;;;;;;;4202361;34;20101;-63
2021/01/03 02:20:46;;;;;;;10.48;9.00;;;;;;;;;;4199176;34;20125;-63
2021/01/03 02:23:12;;;;;;;11.88;9.52;;;;;;;;;;4203495;34;20732;-63
2021/01/03 02:25:38;;;;;;;13.35;10.27;;;;;;;;;;4187719;34;20510;-62
2021/01/03 02:28:16;;;;;;;12.37;9.95;;;;;;;;;;4203583;34;20228;-64
2021/01/03 02:30:44;;;;;;;13.18;9.63;;;;;;;;;;4204309;34;20316;-64
2021/01/03 02:33:21;;;;;;;13.85;9.75;;;;;;;;;;4191174;34;20114;-64
2021/01/03 02:35:47;;;;;;;13.40;11.02;;;;;;;;;;4200441;34;20105;-63
2021/01/03 02:38:15;;;;;;;14.75;11.02;;;;;;;;;;4203419;34;20637;-63
2021/01/03 02:40:40;;;;;;;15.63;11.27;;;;;;;;;;4204747;34;20538;-63
2021/01/03 02:43:06;;;;;;;16.23;10.80;;;;;;;;;;4204856;34;20113;-64
2021/01/03 02:45:32;;;;;;;14.38;10.77;;;;;;;;;;4204607;34;20254;-63
2021/01/03 02:48:05;;;;;;;13.93;10.80;;;;;;;;;;4204733;34;20121;-63
2021/01/03 02:50:31;;;;;;;15.07;11.98;;;;;;;;;;4198726;34;20161;-63
2021/01/03 02:52:57;;;;;;;17.40;11.90;;;;;;;;;;4204552;34;20121;-63
2021/01/03 02:55:23;;;;;;;15.85;11.35;;;;;;;;;;4204327;34;20104;-63
2021/01/03 02:57:49;;;;;;;13.95;11.18;;;;;;;;;;4204430;34;20144;-64
2021/01/03 03:00:22;;;;;;;15.20;11.80;;;;;;;;;;4204200;34;21857;-64
2021/01/03 03:02:48;;;;;;;16.73;12.18;;;;;;;;;;4204222;34;20105;-62
2021/01/03 03:05:15;;;;;;;16.75;12.15;;;;;;;;;;4204078;34;20110;-62
2021/01/03 03:07:40;;;;;;;15.23;11.48;;;;;;;;;;4199576;34;20093;-62
2021/01/03 03:10:07;;;;;;;18.75;12.70;;;;;;;;;;4204480;34;20185;-64
2021/01/03 03:12:34;;;;;;;18.08;13.00;;;;;;;;;;4204430;34;20144;-63
2021/01/03 03:15:00;;;;;;;16.02;12.07;;;;;;;;;;4204128;34;20109;-63
2021/01/03 03:17:25;;;;;;;17.23;12.93;;;;;;;;;;4204455;34;20109;-62
2021/01/03 03:19:51;;;;;;;16.52;12.32;;;;;;;;;;4204504;34;20125;-63
2021/01/03 03:22:17;;;;;;;19.98;11.27;;;;;;;;;;4204099;34;20101;-63
2021/01/03 03:24:43;;;;;;;19.60;11.82;;;;;;;;;;4204132;34;20101;-62
2021/01/03 03:27:09;;;;;;;17.40;12.18;;;;;;;;;;4204153;34;20712;-62
2021/01/03 03:29:35;;;;;;;15.95;12.02;;;;;;;;;;4204194;34;20129;-62
2021/01/03 03:32:02;;;;;;;17.95;12.02;;;;;;;;;;4203779;34;20121;-63
2021/01/03 03:34:27;;;;;;;14.65;11.75;;;;;;;;;;4204210;34;20125;-64
2021/01/03 03:36:57;;;;;;;18.25;15.20;;;;;;;;;;4200233;34;20625;-64
2021/01/03 03:39:24;;;;;;;14.70;10.55;;;;;;;;;;4202706;34;20122;-64
2021/01/03 03:41:50;;;;;;;15.85;11.75;;;;;;;;;;4204025;34;20134;-63
2021/01/03 03:44:16;;;;;;;15.73;11.55;;;;;;;;;;4202357;34;20133;-64
2021/01/03 03:46:41;;;;;;;14.00;11.60;;;;;;;;;;4204071;34;20402;-63
2021/01/03 03:49:07;;;;;;;13.07;10.70;;;;;;;;;;4203908;34;20110;-63
2021/01/03 03:51:33;;;;;;;16.52;11.32;;;;;;;;;;4203846;34;20104;-63
2021/01/03 03:53:59;;;;;;;15.68;10.73;;;;;;;;;;4203739;34;20110;-64
2021/01/03 03:56:25;;;;;;;16.87;10.60;;;;;;;;;;4203759;34;20197;-63
2021/01/03 03:58:51;;;;;;;13.73;10.00;;;;;;;;;;4204167;34;20137;-63
2021/01/03 04:01:17;;;;;;;13.55;10.48;;;;;;;;;;4203142;34;20469;-62
2021/01/03 04:03:43;;;;;;;13.50;10.48;;;;;;;;;;4203966;34;20240;-62
2021/01/03 04:06:09;;;;;;;11.82;10.27;;;;;;;;;;4203372;34;20109;-62
2021/01/03 04:08:36;;;;;;;15.45;11.50;;;;;;;;;;4203614;34;20198;-63
2021/01/03 04:11:02;;;;;;;14.35;11.82;;;;;;;;;;4203419;34;20125;-63
2021/01/03 04:13:28;;;;;;;13.13;10.85;;;;;;;;;;4205356;34;20617;-63
2021/01/03 04:15:54;;;;;;;12.77;10.63;;;;;;;;;;4205835;34;20145;-63
2021/01/03 04:18:20;;;;;;;12.82;10.65;;;;;;;;;;4206012;34;20533;-63
2021/01/03 04:20:46;;;;;;;14.52;10.68;;;;;;;;;;4205889;34;20113;-62
2021/01/03 04:23:12;;;;;;;14.50;10.55;;;;;;;;;;4205648;34;20201;-63
2021/01/03 04:25:38;;;;;;;11.82;9.77;;;;;;;;;;4205590;34;20109;-64
2021/01/03 04:28:04;;;;;;;14.35;11.02;;;;;;;;;;4203124;34;20130;-63
2021/01/03 04:30:30;;;;;;;14.10;10.52;;;;;;;;;;4205809;34;20098;-63
2021/01/03 04:32:56;;;;;;;12.88;10.82;;;;;;;;;;4190781;34;20119;-64
2021/01/03 04:35:22;;;;;;;14.82;10.77;;;;;;;;;;4198986;34;20209;-63
2021/01/03 04:37:52;;;;;;;13.40;10.48;;;;;;;;;;4204512;34;20153;-63
2021/01/03 04:40:27;;;;;;;14.05;10.25;;;;;;;;;;4205231;34;20155;-63
2021/01/03 04:42:55;;;;;;;12.85;10.05;;;;;;;;;;4201899;34;20177;-64
2021/01/03 04:45:32;;;;;;;12.85;9.82;;;;;;;;;;4193013;34;20133;-63
2021/01/03 04:48:03;;;;;;;14.75;10.05;;;;;;;;;;4204526;34;20118;-63
2021/01/03 04:50:41;;;;;;;11.10;9.82;;;;;;;;;;4196084;34;20137;-62
2021/01/03 04:53:31;;;;;;;12.40;10.48;;;;;;;;;;4204208;34;20485;-62
2021/01/03 04:56:02;;;;;;;11.73;9.90;;;;;;;;;;4205391;34;20200;-63
2021/01/03 04:58:35;;;;;;;13.05;10.30;;;;;;;;;;4181862;34;20435;-64
2021/01/03 05:01:12;;;;;;;10.75;8.90;;;;;;;;;;4205122;34;20118;-63
2021/01/03 05:04:03;;;;;;;12.10;9.82;;;;;;;;;;4186495;34;20454;-63
2021/01/03 05:06:29;;;;;;;13.55;9.55;;;;;;;;;;4195350;34;20125;-63
2021/01/03 05:08:59;;;;;;;12.57;9.80;;;;;;;;;;4201909;34;20126;-63
2021/01/03 05:11:53;;;;;;;14.25;10.43;;;;;;;;;;4205123;34;20112;-63
2021/01/03 05:14:29;;;;;;;11.70;9.80;;;;;;;;;;4205543;34;20134;-63
2021/01/03 05:16:55;;;;;;;12.43;10.80;;;;;;;;;;4190984;34;20213;-64
2021/01/03 05:19:24;;;;;;;11.70;9.55;;;;;;;;;;4198497;34;20205;-63
2021/01/03 05:21:52;;;;;;;11.00;9.57;;;;;;;;;;4205326;34;20117;-63
2021/01/03 05:24:21;;;;;;;12.43;9.68;;;;;;;;;;4204597;34;21072;-64
2021/01/03 05:26:47;;;;;;;13.75;11.10;;;;;;;;;;4199723;34;20821;-64
2021/01/03 05:29:25;;;;;;;12.85;10.05;;;;;;;;;;4203704;34;20113;-63
2021/01/03 05:32:04;;;;;;;12.65;10.52;;;;;;;;;;4199812;34;20129;-63
2021/01/03 05:34:31;;;;;;;13.52;10.07;;;;;;;;;;4203972;34;20550;-62
2021/01/03 05:37:06;;;;;;;11.30;10.07;;;;;;;;;;4204382;34;20229;-62
2021/01/03 05:39:32;;;;;;;11.63;9.52;;;;;;;;;;4198511;34;20549;-63
2021/01/03 05:42:19;;;;;;;11.60;9.70;;;;;;;;;;4204940;34;20129;-63
2021/01/03 05:45:07;;;;;;;12.48;10.02;;;;;;;;;;4205319;34;20524;-63
2021/01/03 05:47:38;;;;;;;12.07;9.77;;;;;;;;;;4205252;34;20117;-63
2021/01/03 05:50:23;;;;;;;10.38;9.27;;;;;;;;;;4205106;34;20309;-62
2021/01/03 05:52:54;;;;;;;13.32;10.48;;;;;;;;;;4203894;34;20649;-63
2021/01/03 05:55:22;;;;;;;11.88;10.35;;;;;;;;;;4204939;34;20369;-65
2021/01/03 05:58:18;;;;;;;11.95;10.68;;;;;;;;;;4201494;34;20136;-63
2021/01/03 06:00:45;;;;;;;12.70;9.77;;;;;;;;;;4205351;34;20209;-62
2021/01/03 06:03:23;;;;;;;12.18;8.43;;;;;;;;;;4202795;34;20213;-62
2021/01/03 06:06:09;;;;;;;9.32;8.40;;;;;;;;;;4205038;34;20137;-63
2021/01/03 06:08:36;;;;;;;11.77;9.35;;;;;;;;;;4188804;34;20180;-63
2021/01/03 06:11:20;;;;;;;9.60;8.45;;;;;;;;;;4203671;34;20199;-63
2021/01/03 06:13:55;;;;;;;10.10;9.10;;;;;;;;;;4200451;34;20109;-64
2021/01/03 06:16:27;;;;;;;9.48;8.48;;;;;;;;;;4203436;34;20102;-63
2021/01/03 06:19:06;;;;;;;10.05;8.77;;;;;;;;;;4192764;34;20116;-64
2021/01/03 06:21:36;;;;;;;10.00;9.00;;;;;;;;;;4205061;34;20108;-63
2021/01/03 06:24:18;;;;;;;9.20;8.23;;;;;;;;;;4199658;34;20454;-64
2021/01/03 06:27:00;;;;;;;11.07;9.88;;;;;;;;;;4200909;34;20133;-64
2021/01/03 06:30:06;;;;;;;9.68;8.48;;;;;;;;;;4197721;34;20114;-65
2021/01/03 06:33:06;;;;;;;12.40;11.10;;;;;;;;;;4202181;34;20141;-64
2021/01/03 06:35:46;;;;;;;10.68;9.50;;;;;;;;;;4204231;34;20102;-64
2021/01/03 06:38:13;;;;;;;11.57;10.10;;;;;;;;;;4202382;34;20129;-62
2021/01/03 06:40:56;;;;;;;14.73;10.63;;;;;;;;;;4204416;34;20205;-62
2021/01/03 06:43:41;;;;;;;12.95;10.52;;;;;;;;;;4190836;34;20114;-65
2021/01/03 06:46:39;;;;;;;24.12;15.32;;;;;;;;;;4193128;34;20190;-62
2021/01/03 06:49:23;;;;;;;24.30;14.35;;;;;;;;;;4176881;34;20137;-63
2021/01/03 06:52:15;;;;;;;24.75;14.10;;;;;;;;;;4190631;34;20105;-64
2021/01/03 06:55:03;;;;;;;18.25;12.65;;;;;;;;;;4156819;34;20122;-63
2021/01/03 06:57:56;;;;;;;16.15;11.80;;;;;;;;;;4190280;34;20202;-63
2021/01/03 07:00:22;;;;;;;15.07;11.95;;;;;;;;;;4190144;34;20097;-63
2021/01/03 07:03:12;;;;;;;12.52;10.48;;;;;;;;;;4190051;34;20213;-63
2021/01/03 07:05:48;;;;;;;13.38;10.60;;;;;;;;;;4174190;34;20110;-64
2021/01/03 07:08:14;;;;;;;16.50;12.35;;;;;;;;;;4190039;34;20122;-63
2021/01/03 07:10:42;;;;;;;20.33;13.57;;;;;;;;;;4189917;34;20082;-60
2021/01/03 07:13:29;;;;;;;16.20;12.35;;;;;;;;;;4176404;34;20704;-64
2021/01/03 07:15:57;;;;;;;12.95;10.85;;;;;;;;;;4189622;34;20102;-63
2021/01/03 07:18:33;;;;;;;12.82;11.43;;;;;;;;;;4182555;34;20167;-63
2021/01/03 07:21:20;;;;;;;13.05;11.65;;;;;;;;;;4188355;34;20106;-68
2021/01/03 07:23:48;;;;;;;12.90;11.45;;;;;;;;;;4189307;34;20105;-61
2021/01/03 07:26:30;;;;;;;14.48;11.77;;;;;;;;;;4188395;34;20130;-62
2021/01/03 07:29:16;;;;;;;12.85;10.43;;;;;;;;;;4184437;34;20222;-62
2021/01/03 07:31:42;;;;;;;12.25;10.77;;;;;;;;;;4188325;34;20122;-63
2021/01/03 07:34:21;;;;;;;11.70;9.82;;;;;;;;;;4188293;34;20130;-63
2021/01/03 07:36:54;;;;;;;12.48;10.48;;;;;;;;;;4188252;34;20134;-59
2021/01/03 07:39:22;;;;;;;12.20;10.73;;;;;;;;;;4182606;34;20106;-67
2021/01/03 07:41:50;;;;;;;12.02;10.10;;;;;;;;;;4183788;34;20136;-60
2021/01/03 07:44:22;;;;;;;12.13;10.25;;;;;;;;;;4188094;34;20118;-61
2021/01/03 07:46:55;;;;;;;14.18;11.45;;;;;;;;;;4188201;34;20125;-60
2021/01/03 07:49:30;;;;;;;12.55;11.25;;;;;;;;;;4190454;34;20604;-59
2021/01/03 07:51:56;;;;;;;12.33;10.23;;;;;;;;;;4190240;34;20118;-60
2021/01/03 07:54:22;;;;;;;12.65;10.88;;;;;;;;;;4190378;34;20447;-60
2021/01/03 07:56:48;;;;;;;11.95;9.73;;;;;;;;;;4190378;34;20226;-60
2021/01/03 07:59:14;;;;;;;11.55;9.77;;;;;;;;;;4190137;34;20094;-59
2021/01/03 08:01:53;;;;;;;10.88;9.75;;;;;;;;;;4190711;34;20125;-59
2021/01/03 08:04:23;;;;;;;12.48;10.57;;;;;;;;;;4190637;34;20466;-58
2021/01/03 08:06:49;;;;;;;11.15;9.77;;;;;;;;;;4190781;34;20206;-59
2021/01/03 08:09:25;;;;;;;11.50;10.27;;;;;;;;;;4191008;34;20157;-59
2021/01/03 08:11:52;;;;;;;12.82;10.90;;;;;;;;;;4191157;34;20114;-59
2021/01/03 08:14:24;;;;;;;11.77;10.32;;;;;;;;;;4178118;34;20207;-60
2021/01/03 08:16:50;;;;;;;12.85;11.25;;;;;;;;;;4175557;34;20181;-60
2021/01/03 08:19:20;;;;;;;14.35;10.40;;;;;;;;;;4189556;34;20118;-59
2021/01/03 08:21:53;;;;;;;11.27;9.93;;;;;;;;;;4175461;34;20456;-61
2021/01/03 08:24:19;;;;;;;11.45;10.05;;;;;;;;;;4191165;34;20117;-60
2021/01/03 08:26:52;;;;;;;12.50;11.20;;;;;;;;;;4186702;34;20121;-60
2021/01/03 08:29:45;;;;;;;11.45;10.25;;;;;;;;;;4191376;34;20125;-59
2021/01/03 08:32:25;;;;;;;11.15;10.02;;;;;;;;;;4178564;34;20476;-61
2021/01/03 08:35:05;;;;;;;13.15;10.55;;;;;;;;;;4187182;34;20138;-60
2021/01/03 08:37:39;;;;;;;12.18;10.88;;;;;;;;;;4190488;34;20114;-60
2021/01/03 08:40:35;;;;;;;13.35;10.75;;;;;;;;;;4191021;34;20094;-59
2021/01/03 08:43:13;;;;;;;13.32;11.63;;;;;;;;;;4191470;34;20118;-60
2021/01/03 08:45:40;;;;;;;14.63;11.10;;;;;;;;;;4186211;34;20110;-58
2021/01/03 08:48:10;;;;;;;12.75;11.00;;;;;;;;;;4191795;34;20193;-60
2021/01/03 08:50:37;;;;;;;11.27;10.07;;;;;;;;;;4186051;34;20164;-59
2021/01/03 08:53:09;;;;;;;13.13;11.57;;;;;;;;;;4191690;34;20185;-60
2021/01/03 08:55:38;;;;;;;11.43;10.18;;;;;;;;;;4192518;34;20572;-63
2021/01/03 08:58:09;;;;;;;12.90;9.95;;;;;;;;;;4188363;34;20121;-64
2021/01/03 09:00:37;;;;;;;12.52;10.82;;;;;;;;;;4184877;34;20174;-63
2021/01/03 09:03:03;;;;;;;12.00;10.13;;;;;;;;;;4179067;34;20176;-64
2021/01/03 09:05:33;;;;;;;12.23;10.73;;;;;;;;;;4174412;34;20121;-63
2021/01/03 09:07:59;;;;;;;12.05;10.75;;;;;;;;;;4191520;34;20535;-64
2021/01/03 09:10:39;;;;;;;12.90;11.32;;;;;;;;;;4184940;34;20188;-63
2021/01/03 09:13:19;;;;;;;12.13;10.70;;;;;;;;;;4190193;34;20185;-64
2021/01/03 09:15:52;;;;;;;12.05;10.48;;;;;;;;;;4186486;34;20209;-63
2021/01/03 09:18:27;;;;;;;15.25;11.68;;;;;;;;;;4190024;34;20126;-64
2021/01/03 09:21:01;;;;;;;14.98;11.85;;;;;;;;;;4191254;34;20125;-64
2021/01/03 09:23:29;;;;;;;13.60;11.07;;;;;;;;;;4174211;34;20133;-64
2021/01/03 09:25:56;;;;;;;13.32;11.93;;;;;;;;;;4190040;34;20209;-63
2021/01/03 09:28:27;;;;;;;16.10;13.90;;;;;;;;;;4173282;34;20115;-64
2021/01/03 09:31:18;;;;;;;13.88;11.75;;;;;;;;;;4191485;34;20101;-64
2021/01/03 09:33:53;;;;;;;15.93;12.35;;;;;;;;;;4191807;34;20202;-64
2021/01/03 09:36:48;;;;;;;15.40;12.35;;;;;;;;;;4191433;34;20534;-64
2021/01/03 09:39:45;;;;;;;14.10;11.25;;;;;;;;;;4189527;34;20187;-64
2021/01/03 09:42:46;;;;;;;13.85;12.32;;;;;;;;;;4188480;34;20122;-64
2021/01/03 09:45:29;;;;;;;15.13;12.32;;;;;;;;;;4175119;34;20129;-65
2021/01/03 09:47:55;;;;;;;19.35;16.83;;;;;;;;;;4188014;34;20230;-64
2021/01/03 09:50:33;;;;;;;16.25;12.25;;;;;;;;;;4191195;34;20126;-65
2021/01/03 09:53:08;;;;;;;15.43;11.43;;;;;;;;;;4191364;34;20106;-64
2021/01/03 09:55:35;;;;;;;15.57;12.90;;;;;;;;;;4185739;34;20431;-65
2021/01/03 09:58:03;;;;;;;13.82;11.82;;;;;;;;;;4190025;34;20123;-65
2021/01/03 10:00:44;;;;;;;13.15;11.05;;;;;;;;;;4191181;34;20197;-65
2021/01/03 10:03:41;;;;;;;13.13;11.65;;;;;;;;;;4191374;34;20091;-65
2021/01/03 10:06:22;;;;;;;17.15;12.05;;;;;;;;;;4188306;34;20118;-65
2021/01/03 10:08:48;;;;;;;16.52;14.57;;;;;;;;;;4191323;34;20533;-65
2021/01/03 10:11:30;;;;;;;14.55;12.60;;;;;;;;;;4190246;34;20140;-65
2021/01/03 10:14:00;;;;;;;13.68;11.55;;;;;;;;;;4190721;34;20463;-65
2021/01/03 10:16:27;;;;;;;15.77;13.20;;;;;;;;;;4191121;34;20130;-64
2021/01/03 10:18:54;;;;;;;20.30;15.85;;;;;;;;;;4187376;34;20095;-64
2021/01/03 10:21:36;;;;;;;22.08;17.23;;;;;;;;;;4190982;34;20101;-65
2021/01/03 10:24:23;;;;;;;18.17;15.38;;;;;;;;;;4190883;34;20111;-64
2021/01/03 10:27:13;;;;;;;18.30;15.25;;;;;;;;;;4191353;34;20454;-67
2021/01/03 10:29:39;;;;;;;15.93;12.77;;;;;;;;;;4190893;34;20133;-63
2021/01/03 10:32:05;;;;;;;16.12;12.43;;;;;;;;;;4186422;34;20118;-65
2021/01/03 10:34:31;;;;;;;16.23;12.18;;;;;;;;;;4190072;34;20169;-63
2021/01/03 10:36:58;;;;;;;13.25;11.85;;;;;;;;;;4186995;34;20126;-64
2021/01/03 10:39:25;;;;;;;16.05;13.40;;;;;;;;;;4164082;34;20119;-62
2021/01/03 10:41:50;;;;;;;13.85;12.05;;;;;;;;;;4185182;34;20196;-63
2021/01/03 10:44:16;;;;;;;14.27;11.73;;;;;;;;;;4176799;34;20482;-63
2021/01/03 10:46:42;;;;;;;13.40;12.00;;;;;;;;;;4176730;34;20130;-62
2021/01/03 10:49:09;;;;;;;16.00;11.85;;;;;;;;;;4176973;34;20126;-62
2021/01/03 10:51:42;;;;;;;13.13;11.77;;;;;;;;;;4184980;34;20811;-61
2021/01/03 10:54:11;;;;;;;14.63;12.52;;;;;;;;;;4177655;34;20247;-61
2021/01/03 10:56:36;;;;;;;13.00;11.70;;;;;;;;;;4176767;34;20141;-61
2021/01/03 10:59:03;;;;;;;13.07;11.73;;;;;;;;;;4188295;34;20138;-62
2021/01/03 11:01:29;;;;;;;13.95;12.45;;;;;;;;;;4190739;34;20469;-62
2021/01/03 11:03:55;;;;;;;14.57;12.55;;;;;;;;;;4186927;34;20137;-61
2021/01/03 11:06:21;;;;;;;14.27;12.40;;;;;;;;;;4190390;34;20132;-60
2021/01/03 11:08:47;;;;;;;12.88;11.57;;;;;;;;;;4186303;34;20218;-61
2021/01/03 11:11:22;;;;;;;17.20;15.43;;;;;;;;;;4190369;34;20141;-62
2021/01/03 11:13:48;;;;;;;17.27;14.55;;;;;;;;;;4190341;34;20110;-62
2021/01/03 11:16:14;;;;;;;15.45;13.85;;;;;;;;;;4190035;34;20267;-63
2021/01/03 11:18:40;;;;;;;16.48;14.77;;;;;;;;;;4189070;34;20201;-62
2021/01/03 11:21:10;;;;;;;15.30;13.68;;;;;;;;;;4188311;34;20136;-62
2021/01/03 11:23:37;;;;;;;15.20;13.60;;;;;;;;;;4171483;34;20184;-63
2021/01/03 11:26:03;;;;;;;13.85;12.45;;;;;;;;;;4188583;34;20463;-63
2021/01/03 11:28:29;;;;;;;14.57;13.02;;;;;;;;;;4189243;34;20120;-61
2021/01/03 11:30:55;;;;;;;15.30;13.27;;;;;;;;;;4184960;34;20122;-61
2021/01/03 11:33:21;;;;;;;15.23;13.68;;;;;;;;;;4190410;34;20213;-61
2021/01/03 11:35:47;;;;;;;15.40;13.62;;;;;;;;;;4190384;34;20581;-61
2021/01/03 11:38:13;;;;;;;17.08;13.95;;;;;;;;;;4190526;34;20229;-60
2021/01/03 11:40:43;;;;;;;15.85;13.85;;;;;;;;;;4190153;34;20595;-66
2021/01/03 11:43:09;;;;;;;14.30;12.80;;;;;;;;;;4189201;34;20617;-62
2021/01/03 11:45:35;;;;;;;15.98;13.93;;;;;;;;;;4184864;34;20114;-63
2021/01/03 11:48:02;;;;;;;23.73;21.33;;;;;;;;;;4190272;34;20518;-62
2021/01/03 11:50:29;;;;;;;14.93;13.38;;;;;;;;;;4189934;34;20098;-62
2021/01/03 11:52:55;;;;;;;16.58;14.60;;;;;;;;;;4189909;34;20137;-63
2021/01/03 11:55:21;;;;;;;18.50;15.43;;;;;;;;;;4183517;34;20114;-63
2021/01/03 11:57:47;;;;;;;14.43;12.43;;;;;;;;;;4189677;34;20497;-63
2021/01/03 12:00:14;;;;;;;17.48;14.30;;;;;;;;;;4190025;34;20494;-61
2021/01/03 12:02:40;;;;;;;15.32;13.27;;;;;;;;;;4189928;34;20518;-64
2021/01/03 12:05:07;;;;;;;15.88;13.38;;;;;;;;;;4189619;34;20186;-63
2021/01/03 12:07:33;;;;;;;14.20;12.63;;;;;;;;;;4190185;34;20107;-61
2021/01/03 12:09:59;;;;;;;15.00;13.10;;;;;;;;;;4186624;34;20110;-64
2021/01/03 12:12:25;;;;;;;15.40;13.40;;;;;;;;;;4190018;34;20113;-63
2021/01/03 12:14:50;;;;;;;16.08;14.48;;;;;;;;;;4190180;34;20206;-64
2021/01/03 12:17:18;;;;;;;16.92;14.35;;;;;;;;;;4189886;34;20222;-63
2021/01/03 12:19:45;;;;;;;27.50;24.60;;;;;;;;;;4189977;34;20133;-63
2021/01/03 12:22:11;;;;;;;16.85;14.63;;;;;;;;;;4188227;34;20157;-63
2021/01/03 12:24:37;;;;;;;23.23;20.75;;;;;;;;;;4189969;34;20132;-64
2021/01/03 12:27:03;;;;;;;20.05;17.62;;;;;;;;;;4189856;34;20122;-65
2021/01/03 12:29:29;;;;;;;22.20;19.85;;;;;;;;;;4189900;34;20217;-63
2021/01/03 12:31:57;;;;;;;16.40;14.73;;;;;;;;;;4189724;34;20139;-65
2021/01/03 12:34:24;;;;;;;17.58;14.98;;;;;;;;;;4191091;34;20114;-62
2021/01/03 12:36:50;;;;;;;15.88;13.52;;;;;;;;;;4187955;34;20196;-63
2021/01/03 12:39:17;;;;;;;15.68;13.10;;;;;;;;;;4190502;34;20130;-63
2021/01/03 12:41:43;;;;;;;17.70;15.15;;;;;;;;;;4191881;34;20193;-66
2021/01/03 12:44:10;;;;;;;15.65;13.98;;;;;;;;;;4189623;34;20185;-65
2021/01/03 12:46:39;;;;;;;18.87;16.85;;;;;;;;;;4191765;34;20293;-64
2021/01/03 12:49:06;;;;;;;16.90;13.62;;;;;;;;;;4192347;34;20102;-63
2021/01/03 12:51:32;;;;;;;15.82;13.68;;;;;;;;;;4186234;34;20104;-63
2021/01/03 12:53:58;;;;;;;16.30;13.62;;;;;;;;;;4191976;34;20111;-63
2021/01/03 12:56:24;;;;;;;15.15;12.95;;;;;;;;;;4191742;34;20110;-63
2021/01/03 12:58:51;;;;;;;17.65;14.48;;;;;;;;;;4187697;34;20101;-64
2021/01/03 13:01:20;;;;;;;16.17;14.32;;;;;;;;;;4191810;34;20118;-63
2021/01/03 13:03:46;;;;;;;17.12;14.27;;;;;;;;;;4187532;34;20213;-64
2021/01/03 13:06:12;;;;;;;16.75;14.85;;;;;;;;;;4191631;34;20130;-64
2021/01/03 13:08:38;;;;;;;17.62;14.75;;;;;;;;;;4186218;34;20205;-64
2021/01/03 13:11:04;;;;;;;19.10;16.95;;;;;;;;;;4191684;34;20557;-62
2021/01/03 13:13:30;;;;;;;16.98;15.18;;;;;;;;;;4185879;34;20134;-63
2021/01/03 13:15:56;;;;;;;19.15;15.07;;;;;;;;;;4191187;34;20201;-63
2021/01/03 13:18:22;;;;;;;16.52;14.60;;;;;;;;;;4191788;34;20129;-63
2021/01/03 13:20:48;;;;;;;18.35;14.93;;;;;;;;;;4191493;34;20469;-63
2021/01/03 13:23:14;;;;;;;19.40;15.35;;;;;;;;;;4191405;34;20110;-63
2021/01/03 13:25:40;;;;;;;16.98;14.95;;;;;;;;;;4191508;34;20229;-64
2021/01/03 13:28:06;;;;;;;17.08;15.10;;;;;;;;;;4187914;34;20114;-63
2021/01/03 13:30:32;;;;;;;16.48;14.65;;;;;;;;;;4191565;34;20113;-63
2021/01/03 13:32:58;;;;;;;16.83;14.55;;;;;;;;;;4191665;34;20249;-63
2021/01/03 13:35:24;;;;;;;17.42;14.52;;;;;;;;;;4191356;34;20594;-62
2021/01/03 13:37:56;;;;;;;16.60;14.80;;;;;;;;;;4191420;34;20432;-63
2021/01/03 13:40:23;;;;;;;15.98;13.90;;;;;;;;;;4184861;34;20538;-64
2021/01/03 13:42:49;;;;;;;18.80;15.68;;;;;;;;;;4189835;34;20113;-65
2021/01/03 13:45:15;;;;;;;16.62;14.82;;;;;;;;;;4190927;34;20449;-63
2021/01/03 13:47:41;;;;;;;18.90;16.15;;;;;;;;;;4191601;34;20163;-63
2021/01/03 13:50:07;;;;;;;19.05;15.52;;;;;;;;;;4189701;34;20138;-63
2021/01/03 13:52:33;;;;;;;20.12;15.30;;;;;;;;;;4159926;34;20118;-62
2021/01/03 13:54:59;;;;;;;16.17;14.10;;;;;;;;;;4176671;34;20121;-61
2021/01/03 13:57:25;;;;;;;16.33;14.20;;;;;;;;;;4177416;34;20130;-62
2021/01/03 13:59:51;;;;;;;17.30;14.68;;;;;;;;;;4183439;34;20118;-63
2021/01/03 14:02:17;;;;;;;16.10;14.18;;;;;;;;;;4190898;34;20462;-63
2021/01/03 14:04:43;;;;;;;15.85;13.57;;;;;;;;;;4186553;34;20145;-63
2021/01/03 14:07:10;;;;;;;15.48;13.75;;;;;;;;;;4183473;34;20125;-63
2021/01/03 14:09:36;;;;;;;15.95;14.35;;;;;;;;;;4175412;34;20201;-63
2021/01/03 14:12:03;;;;;;;15.95;14.20;;;;;;;;;;4190146;34;20463;-62
2021/01/03 14:14:29;;;;;;;15.63;12.90;;;;;;;;;;4189869;34;20202;-63
2021/01/03 14:16:56;;;;;;;16.48;14.05;;;;;;;;;;4177367;34;20206;-63
2021/01/03 14:19:23;;;;;;;16.05;13.73;;;;;;;;;;4177439;34;20098;-63
2021/01/03 14:21:49;;;;;;;16.15;14.13;;;;;;;;;;4191159;34;20208;-64
2021/01/03 14:24:15;;;;;;;15.82;13.18;;;;;;;;;;4190812;34;20126;-64
2021/01/03 14:26:42;;;;;;;16.25;14.55;;;;;;;;;;4190732;34;20571;-65
2021/01/03 14:29:10;;;;;;;14.85;12.90;;;;;;;;;;4190892;34;20098;-64
2021/01/03 14:31:36;;;;;;;16.58;14.43;;;;;;;;;;4184416;34;20124;-64
2021/01/03 14:34:25;;;;;;;16.65;13.75;;;;;;;;;;4175908;34;20470;-66
2021/01/03 14:36:52;;;;;;;15.40;13.38;;;;;;;;;;4188750;34;20146;-64
2021/01/03 14:39:23;;;;;;;17.20;15.27;;;;;;;;;;4175828;34;20121;-64
2021/01/03 14:41:51;;;;;;;18.58;15.00;;;;;;;;;;4173880;34;20140;-64